createdAt,value
2022-12-15T00:00:56.324Z,-6.68
2022-12-15T00:01:56.290Z,-6.69
2022-12-15T00:02:56.445Z,-6.71
2022-12-15T00:03:56.322Z,-6.72
2022-12-15T00:04:56.255Z,-6.73
2022-12-15T00:05:56.241Z,-6.74
2022-12-15T00:06:56.296Z,-6.75
2022-12-15T00:07:56.226Z,-6.75
2022-12-15T00:08:56.223Z,-6.76
2022-12-15T00:09:56.208Z,-6.76
2022-12-15T00:10:56.234Z,-6.76
2022-12-15T00:11:56.175Z,-6.77
2022-12-15T00:12:56.185Z,-6.77
2022-12-15T00:13:56.180Z,-6.78
2022-12-15T00:14:56.145Z,-6.78
2022-12-15T00:15:56.179Z,-6.78
2022-12-15T00:16:56.129Z,-6.77
2022-12-15T00:17:56.119Z,-6.74
2022-12-15T00:18:56.124Z,-6.71
2022-12-15T00:19:56.098Z,-6.68
2022-12-15T00:20:56.090Z,-6.67
2022-12-15T00:21:56.098Z,-6.66
2022-12-15T00:22:56.070Z,-6.66
2022-12-15T00:23:56.077Z,-6.66
2022-12-15T00:24:56.079Z,-6.66
2022-12-15T00:25:56.032Z,-6.66
2022-12-15T00:26:56.024Z,-6.66
2022-12-15T00:27:56.014Z,-6.67
2022-12-15T00:28:56.011Z,-6.67
2022-12-15T00:29:56.019Z,-6.68
2022-12-15T00:31:01.956Z,-6.69
2022-12-15T00:31:57.021Z,-6.70
2022-12-15T00:32:55.958Z,-6.71
2022-12-15T00:33:55.960Z,-6.72
2022-12-15T00:34:55.955Z,-6.73
2022-12-15T00:35:55.947Z,-6.74
2022-12-15T00:36:55.926Z,-6.76
2022-12-15T00:37:55.914Z,-6.77
2022-12-15T00:39:00.472Z,-6.79
2022-12-15T00:39:56.933Z,-6.80
2022-12-15T00:40:55.885Z,-6.81
2022-12-15T00:41:55.874Z,-6.82
2022-12-15T00:42:55.867Z,-6.83
2022-12-15T00:43:55.848Z,-6.83
2022-12-15T00:44:55.863Z,-6.84
2022-12-15T00:45:55.849Z,-6.85
2022-12-15T00:46:55.888Z,-6.85
2022-12-15T00:47:55.814Z,-6.86
2022-12-15T00:48:55.800Z,-6.87
2022-12-15T00:49:55.808Z,-6.88
2022-12-15T00:50:55.797Z,-6.89
2022-12-15T00:51:55.768Z,-6.91
2022-12-15T00:52:55.761Z,-6.92
2022-12-15T00:53:55.748Z,-6.94
2022-12-15T00:54:55.736Z,-6.94
2022-12-15T00:55:55.763Z,-6.94
2022-12-15T00:56:55.723Z,-6.95
2022-12-15T00:57:55.714Z,-6.95
2022-12-15T00:58:55.695Z,-6.95
2022-12-15T00:59:55.686Z,-6.96
2022-12-15T01:00:55.703Z,-6.96
2022-12-15T01:01:55.831Z,-6.97
2022-12-15T01:02:55.859Z,-6.98
2022-12-15T01:03:55.745Z,-6.99
2022-12-15T01:04:55.658Z,-7.00
2022-12-15T01:05:55.637Z,-7.01
2022-12-15T01:06:55.634Z,-7.02
2022-12-15T01:07:55.610Z,-7.03
2022-12-15T01:08:55.600Z,-7.04
2022-12-15T01:09:55.585Z,-7.05
2022-12-15T01:10:55.596Z,-7.07
2022-12-15T01:11:55.565Z,-7.08
2022-12-15T01:12:55.599Z,-7.09
2022-12-15T01:13:55.542Z,-7.11
2022-12-15T01:14:55.536Z,-7.13
2022-12-15T01:15:55.580Z,-7.14
2022-12-15T01:16:55.532Z,-7.15
2022-12-15T01:17:55.498Z,-7.16
2022-12-15T01:18:55.493Z,-7.17
2022-12-15T01:19:55.486Z,-7.17
2022-12-15T01:20:55.487Z,-7.17
2022-12-15T01:21:55.460Z,-7.17
2022-12-15T01:22:55.445Z,-7.16
2022-12-15T01:23:55.443Z,-7.16
2022-12-15T01:24:55.430Z,-7.16
2022-12-15T01:25:55.447Z,-7.16
2022-12-15T01:26:55.410Z,-7.16
2022-12-15T01:27:55.399Z,-7.16
2022-12-15T01:28:55.388Z,-7.16
2022-12-15T01:29:55.380Z,-7.16
2022-12-15T01:30:55.518Z,-7.15
2022-12-15T01:31:55.482Z,-7.15
2022-12-15T01:32:55.383Z,-7.14
2022-12-15T01:33:55.341Z,-7.14
2022-12-15T01:34:55.328Z,-7.14
2022-12-15T01:35:55.329Z,-7.15
2022-12-15T01:36:55.321Z,-7.15
2022-12-15T01:37:55.305Z,-7.16
2022-12-15T01:38:55.307Z,-7.17
2022-12-15T01:39:55.300Z,-7.18
2022-12-15T01:40:55.282Z,-7.18
2022-12-15T01:41:55.303Z,-7.19
2022-12-15T01:42:55.244Z,-7.19
2022-12-15T01:43:55.243Z,-7.18
2022-12-15T01:44:55.220Z,-7.18
2022-12-15T01:45:55.217Z,-7.18
2022-12-15T01:46:55.340Z,-7.17
2022-12-15T01:47:55.238Z,-7.17
2022-12-15T01:48:55.178Z,-7.16
2022-12-15T01:49:55.178Z,-7.15
2022-12-15T01:50:55.163Z,-7.14
2022-12-15T01:51:55.172Z,-7.14
2022-12-15T01:52:55.155Z,-7.13
2022-12-15T01:53:55.178Z,-7.13
2022-12-15T01:54:55.120Z,-7.12
2022-12-15T01:55:55.122Z,-7.12
2022-12-15T01:56:55.132Z,-7.11
2022-12-15T01:57:55.087Z,-7.11
2022-12-15T01:58:55.085Z,-7.11
2022-12-15T01:59:55.079Z,-7.11
2022-12-15T02:00:55.105Z,-7.10
2022-12-15T02:01:55.205Z,-7.11
2022-12-15T02:02:55.171Z,-7.11
2022-12-15T02:03:55.029Z,-7.11
2022-12-15T02:04:55.025Z,-7.11
2022-12-15T02:05:55.008Z,-7.12
2022-12-15T02:06:54.999Z,-7.12
2022-12-15T02:07:55.003Z,-7.12
2022-12-15T02:08:54.979Z,-7.12
2022-12-15T02:09:54.964Z,-7.11
2022-12-15T02:10:54.961Z,-7.11
2022-12-15T02:11:54.949Z,-7.11
2022-12-15T02:12:55.005Z,-7.11
2022-12-15T02:13:54.925Z,-7.11
2022-12-15T02:14:54.914Z,-7.11
2022-12-15T02:15:54.939Z,-7.10
2022-12-15T02:16:54.904Z,-7.09
2022-12-15T02:17:54.906Z,-7.09
2022-12-15T02:18:54.883Z,-7.08
2022-12-15T02:19:54.872Z,-7.07
2022-12-15T02:20:54.854Z,-7.07
2022-12-15T02:21:54.841Z,-7.07
2022-12-15T02:22:54.844Z,-7.07
2022-12-15T02:23:54.821Z,-7.07
2022-12-15T02:24:54.810Z,-7.08
2022-12-15T02:25:54.809Z,-7.09
2022-12-15T02:26:54.787Z,-7.10
2022-12-15T02:27:54.795Z,-7.11
2022-12-15T02:28:54.768Z,-7.12
2022-12-15T02:29:54.762Z,-7.14
2022-12-15T02:30:54.749Z,-7.15
2022-12-15T02:31:54.833Z,-7.17
2022-12-15T02:32:54.742Z,-7.18
2022-12-15T02:33:54.752Z,-7.19
2022-12-15T02:34:54.708Z,-7.20
2022-12-15T02:35:54.695Z,-7.21
2022-12-15T02:36:54.687Z,-7.22
2022-12-15T02:37:54.680Z,-7.23
2022-12-15T02:38:54.697Z,-7.24
2022-12-15T02:39:54.671Z,-7.25
2022-12-15T02:40:54.647Z,-7.26
2022-12-15T02:41:54.687Z,-7.27
2022-12-15T02:42:54.648Z,-7.29
2022-12-15T02:43:54.647Z,-7.30
2022-12-15T02:44:54.617Z,-7.31
2022-12-15T02:45:54.625Z,-7.32
2022-12-15T02:46:54.628Z,-7.32
2022-12-15T02:47:54.576Z,-7.33
2022-12-15T02:48:54.584Z,-7.33
2022-12-15T02:49:54.567Z,-7.33
2022-12-15T02:50:54.555Z,-7.31
2022-12-15T02:51:54.551Z,-7.29
2022-12-15T02:52:54.532Z,-7.26
2022-12-15T02:53:54.576Z,-7.22
2022-12-15T02:54:54.501Z,-7.20
2022-12-15T02:55:54.493Z,-7.18
2022-12-15T02:56:54.479Z,-7.16
2022-12-15T02:57:54.471Z,-7.15
2022-12-15T02:58:54.485Z,-7.15
2022-12-15T02:59:54.467Z,-7.15
2022-12-15T03:00:54.483Z,-7.15
2022-12-15T03:01:54.636Z,-7.16
2022-12-15T03:02:54.530Z,-7.17
2022-12-15T03:03:54.436Z,-7.18
2022-12-15T03:04:54.396Z,-7.19
2022-12-15T03:05:54.385Z,-7.20
2022-12-15T03:07:00.405Z,-7.22
2022-12-15T03:07:55.363Z,-7.23
2022-12-15T03:08:54.355Z,-7.25
2022-12-15T03:09:54.359Z,-7.26
2022-12-15T03:10:54.369Z,-7.27
2022-12-15T03:11:54.321Z,-7.28
2022-12-15T03:12:54.321Z,-7.29
2022-12-15T03:13:54.331Z,-7.30
2022-12-15T03:14:54.301Z,-7.31
2022-12-15T03:15:54.285Z,-7.31
2022-12-15T03:16:54.347Z,-7.31
2022-12-15T03:17:54.266Z,-7.30
2022-12-15T03:18:54.264Z,-7.28
2022-12-15T03:19:54.258Z,-7.27
2022-12-15T03:20:54.232Z,-7.25
2022-12-15T03:21:54.219Z,-7.24
2022-12-15T03:22:54.211Z,-7.24
2022-12-15T03:23:54.204Z,-7.23
2022-12-15T03:24:54.214Z,-7.23
2022-12-15T03:25:54.186Z,-7.22
2022-12-15T03:26:54.178Z,-7.21
2022-12-15T03:27:54.159Z,-7.20
2022-12-15T03:28:54.179Z,-7.18
2022-12-15T03:29:54.147Z,-7.17
2022-12-15T03:30:54.132Z,-7.15
2022-12-15T03:31:54.192Z,-7.14
2022-12-15T03:32:54.125Z,-7.12
2022-12-15T03:33:54.099Z,-7.11
2022-12-15T03:34:54.115Z,-7.10
2022-12-15T03:35:54.080Z,-7.09
2022-12-15T03:36:54.089Z,-7.08
2022-12-15T03:37:54.075Z,-7.08
2022-12-15T03:38:54.043Z,-7.09
2022-12-15T03:39:54.056Z,-7.10
2022-12-15T03:40:54.036Z,-7.11
2022-12-15T03:41:54.022Z,-7.12
2022-12-15T03:42:54.020Z,-7.12
2022-12-15T03:43:53.994Z,-7.12
2022-12-15T03:44:53.990Z,-7.12
2022-12-15T03:45:54.067Z,-7.12
2022-12-15T03:46:57.219Z,-7.12
2022-12-15T03:47:54.985Z,-7.12
2022-12-15T03:48:53.959Z,-7.11
2022-12-15T03:49:53.932Z,-7.09
2022-12-15T03:50:53.936Z,-7.08
2022-12-15T03:51:53.935Z,-7.07
2022-12-15T03:52:53.903Z,-7.06
2022-12-15T03:53:53.889Z,-7.06
2022-12-15T03:55:01.628Z,-7.06
2022-12-15T03:55:53.887Z,-7.06
2022-12-15T03:56:53.866Z,-7.06
2022-12-15T03:57:53.852Z,-7.07
2022-12-15T03:58:53.839Z,-7.07
2022-12-15T03:59:53.848Z,-7.08
2022-12-15T04:00:53.924Z,-7.07
2022-12-15T04:01:53.913Z,-7.07
2022-12-15T04:02:53.990Z,-7.06
2022-12-15T04:04:00.033Z,-7.06
2022-12-15T04:04:54.776Z,-7.06
2022-12-15T04:05:53.794Z,-7.06
2022-12-15T04:06:53.765Z,-7.07
2022-12-15T04:07:53.749Z,-7.08
2022-12-15T04:08:53.747Z,-7.08
2022-12-15T04:09:53.739Z,-7.09
2022-12-15T04:10:53.742Z,-7.10
2022-12-15T04:11:53.710Z,-7.11
2022-12-15T04:12:53.700Z,-7.12
2022-12-15T04:13:53.684Z,-7.13
2022-12-15T04:14:53.674Z,-7.15
2022-12-15T04:15:53.683Z,-7.17
2022-12-15T04:16:53.712Z,-7.20
2022-12-15T04:17:53.669Z,-7.22
2022-12-15T04:18:53.647Z,-7.24
2022-12-15T04:19:53.624Z,-7.25
2022-12-15T04:20:53.635Z,-7.27
2022-12-15T04:21:53.608Z,-7.28
2022-12-15T04:22:53.600Z,-7.28
2022-12-15T04:23:53.584Z,-7.30
2022-12-15T04:24:53.573Z,-7.31
2022-12-15T04:25:53.588Z,-7.32
2022-12-15T04:26:53.598Z,-7.33
2022-12-15T04:27:58.379Z,-7.35
2022-12-15T04:28:54.535Z,-7.36
2022-12-15T04:29:53.529Z,-7.36
2022-12-15T04:30:53.572Z,-7.37
2022-12-15T04:31:53.498Z,-7.38
2022-12-15T04:32:53.494Z,-7.39
2022-12-15T04:33:53.486Z,-7.39
2022-12-15T04:34:53.472Z,-7.38
2022-12-15T04:35:53.487Z,-7.38
2022-12-15T04:36:53.462Z,-7.38
2022-12-15T04:37:53.438Z,-7.38
2022-12-15T04:38:53.429Z,-7.38
2022-12-15T04:39:53.420Z,-7.38
2022-12-15T04:40:53.439Z,-7.38
2022-12-15T04:41:53.414Z,-7.38
2022-12-15T04:42:53.389Z,-7.39
2022-12-15T04:43:53.384Z,-7.40
2022-12-15T04:44:53.375Z,-7.41
2022-12-15T04:45:53.399Z,-7.42
2022-12-15T04:46:53.386Z,-7.42
2022-12-15T04:47:53.340Z,-7.43
2022-12-15T04:48:53.325Z,-7.44
2022-12-15T04:49:53.315Z,-7.46
2022-12-15T04:50:53.314Z,-7.47
2022-12-15T04:51:53.294Z,-7.48
2022-12-15T04:52:53.299Z,-7.49
2022-12-15T04:53:53.280Z,-7.50
2022-12-15T04:54:53.265Z,-7.51
2022-12-15T04:55:53.253Z,-7.52
2022-12-15T04:56:53.245Z,-7.52
2022-12-15T04:57:53.245Z,-7.53
2022-12-15T04:58:53.262Z,-7.54
2022-12-15T04:59:53.226Z,-7.54
2022-12-15T05:00:53.203Z,-7.55
2022-12-15T05:01:53.354Z,-7.56
2022-12-15T05:02:53.196Z,-7.56
2022-12-15T05:03:53.227Z,-7.57
2022-12-15T05:04:53.183Z,-7.58
2022-12-15T05:05:53.158Z,-7.59
2022-12-15T05:06:53.144Z,-7.59
2022-12-15T05:07:53.169Z,-7.60
2022-12-15T05:08:53.126Z,-7.61
2022-12-15T05:09:53.143Z,-7.62
2022-12-15T05:10:53.131Z,-7.62
2022-12-15T05:11:53.094Z,-7.63
2022-12-15T05:12:53.079Z,-7.63
2022-12-15T05:13:53.089Z,-7.63
2022-12-15T05:14:53.067Z,-7.63
2022-12-15T05:15:53.078Z,-7.63
2022-12-15T05:16:53.149Z,-7.63
2022-12-15T05:17:53.077Z,-7.62
2022-12-15T05:18:53.044Z,-7.61
2022-12-15T05:19:53.008Z,-7.59
2022-12-15T05:20:52.991Z,-7.58
2022-12-15T05:21:52.994Z,-7.56
2022-12-15T05:22:52.978Z,-7.55
2022-12-15T05:23:52.981Z,-7.54
2022-12-15T05:24:52.956Z,-7.53
2022-12-15T05:25:52.948Z,-7.52
2022-12-15T05:26:53.518Z,-7.52
2022-12-15T05:27:52.927Z,-7.53
2022-12-15T05:28:52.949Z,-7.54
2022-12-15T05:29:52.914Z,-7.55
2022-12-15T05:30:52.944Z,-7.57
2022-12-15T05:31:52.887Z,-7.58
2022-12-15T05:32:52.903Z,-7.59
2022-12-15T05:33:52.884Z,-7.60
2022-12-15T05:34:52.855Z,-7.61
2022-12-15T05:35:52.865Z,-7.62
2022-12-15T05:36:52.859Z,-7.62
2022-12-15T05:37:52.875Z,-7.63
2022-12-15T05:38:52.816Z,-7.64
2022-12-15T05:39:52.810Z,-7.65
2022-12-15T05:40:52.784Z,-7.66
2022-12-15T05:41:52.806Z,-7.68
2022-12-15T05:42:52.958Z,-7.69
2022-12-15T05:43:52.762Z,-7.70
2022-12-15T05:44:52.760Z,-7.72
2022-12-15T05:45:52.782Z,-7.73
2022-12-15T05:46:52.777Z,-7.74
2022-12-15T05:47:52.732Z,-7.74
2022-12-15T05:48:52.713Z,-7.74
2022-12-15T05:49:52.744Z,-7.75
2022-12-15T05:50:52.701Z,-7.75
2022-12-15T05:51:52.733Z,-7.76
2022-12-15T05:52:52.694Z,-7.76
2022-12-15T05:53:52.658Z,-7.77
2022-12-15T05:54:52.652Z,-7.77
2022-12-15T05:55:52.638Z,-7.76
2022-12-15T05:56:52.623Z,-7.76
2022-12-15T05:57:52.792Z,-7.74
2022-12-15T05:58:52.612Z,-7.72
2022-12-15T05:59:52.598Z,-7.70
2022-12-15T06:00:52.601Z,-7.68
2022-12-15T06:01:52.647Z,-7.66
2022-12-15T06:02:52.625Z,-7.64
2022-12-15T06:03:52.569Z,-7.60
2022-12-15T06:04:52.668Z,-7.57
2022-12-15T06:05:56.442Z,-7.54
2022-12-15T06:06:52.517Z,-7.51
2022-12-15T06:07:52.526Z,-7.47
2022-12-15T06:08:52.528Z,-7.43
2022-12-15T06:09:52.530Z,-7.40
2022-12-15T06:10:52.480Z,-7.37
2022-12-15T06:11:52.515Z,-7.34
2022-12-15T06:12:52.496Z,-7.32
2022-12-15T06:13:52.484Z,-7.30
2022-12-15T06:14:52.944Z,-7.29
2022-12-15T06:15:52.699Z,-7.27
2022-12-15T06:16:52.481Z,-7.26
2022-12-15T06:17:52.673Z,-7.25
2022-12-15T06:18:52.458Z,-7.24
2022-12-15T06:19:52.423Z,-7.23
2022-12-15T06:20:52.459Z,-7.23
2022-12-15T06:21:52.575Z,-7.23
2022-12-15T06:22:52.356Z,-7.24
2022-12-15T06:23:52.408Z,-7.24
2022-12-15T06:24:52.339Z,-7.25
2022-12-15T06:25:52.336Z,-7.26
2022-12-15T06:26:52.312Z,-7.27
2022-12-15T06:27:55.778Z,-7.27
2022-12-15T06:28:53.315Z,-7.27
2022-12-15T06:29:52.291Z,-7.26
2022-12-15T06:30:52.354Z,-7.25
2022-12-15T06:31:52.396Z,-7.24
2022-12-15T06:32:52.264Z,-7.23
2022-12-15T06:33:57.475Z,-7.22
2022-12-15T06:34:53.249Z,-7.22
2022-12-15T06:35:52.239Z,-7.20
2022-12-15T06:36:52.235Z,-7.19
2022-12-15T06:37:52.213Z,-7.18
2022-12-15T06:38:52.229Z,-7.17
2022-12-15T06:39:52.192Z,-7.17
2022-12-15T06:40:52.176Z,-7.16
2022-12-15T06:41:52.171Z,-7.16
2022-12-15T06:42:52.178Z,-7.15
2022-12-15T06:43:52.158Z,-7.16
2022-12-15T06:44:52.128Z,-7.16
2022-12-15T06:45:52.135Z,-7.18
2022-12-15T06:46:52.203Z,-7.20
2022-12-15T06:47:55.355Z,-7.24
2022-12-15T06:48:53.112Z,-7.27
2022-12-15T06:49:52.089Z,-7.31
2022-12-15T06:50:52.069Z,-7.35
2022-12-15T06:51:52.064Z,-7.39
2022-12-15T06:52:52.061Z,-7.43
2022-12-15T06:53:52.064Z,-7.46
2022-12-15T06:54:52.036Z,-7.49
2022-12-15T06:55:52.023Z,-7.51
2022-12-15T06:56:52.030Z,-7.54
2022-12-15T06:57:52.009Z,-7.55
2022-12-15T06:58:52.008Z,-7.57
2022-12-15T06:59:51.980Z,-7.58
2022-12-15T07:00:51.982Z,-7.58
2022-12-15T07:01:52.120Z,-7.58
2022-12-15T07:02:52.125Z,-7.57
2022-12-15T07:03:52.107Z,-7.56
2022-12-15T07:04:51.944Z,-7.54
2022-12-15T07:05:51.916Z,-7.53
2022-12-15T07:06:51.908Z,-7.52
2022-12-15T07:07:51.943Z,-7.52
2022-12-15T07:08:51.905Z,-7.52
2022-12-15T07:09:51.903Z,-7.54
2022-12-15T07:10:51.873Z,-7.56
2022-12-15T07:11:51.863Z,-7.58
2022-12-15T07:12:51.852Z,-7.60
2022-12-15T07:13:51.869Z,-7.61
2022-12-15T07:14:53.684Z,-7.62
2022-12-15T07:15:51.866Z,-7.63
2022-12-15T07:16:51.805Z,-7.64
2022-12-15T07:17:51.799Z,-7.64
2022-12-15T07:18:51.784Z,-7.64
2022-12-15T07:19:51.795Z,-7.64
2022-12-15T07:20:51.802Z,-7.65
2022-12-15T07:21:51.754Z,-7.64
2022-12-15T07:22:51.749Z,-7.63
2022-12-15T07:23:55.214Z,-7.62
2022-12-15T07:24:51.723Z,-7.61
2022-12-15T07:25:51.715Z,-7.59
2022-12-15T07:26:51.703Z,-7.57
2022-12-15T07:27:51.688Z,-7.57
2022-12-15T07:28:51.698Z,-7.57
2022-12-15T07:29:51.687Z,-7.57
2022-12-15T07:30:51.663Z,-7.56
2022-12-15T07:31:51.721Z,-7.55
2022-12-15T07:32:51.641Z,-7.53
2022-12-15T07:33:51.669Z,-7.52
2022-12-15T07:34:51.620Z,-7.52
2022-12-15T07:35:51.626Z,-7.52
2022-12-15T07:36:52.600Z,-7.54
2022-12-15T07:37:51.595Z,-7.55
2022-12-15T07:38:52.060Z,-7.57
2022-12-15T07:39:51.583Z,-7.59
2022-12-15T07:40:51.565Z,-7.60
2022-12-15T07:41:51.564Z,-7.61
2022-12-15T07:42:51.553Z,-7.62
2022-12-15T07:43:51.555Z,-7.61
2022-12-15T07:44:51.538Z,-7.61
2022-12-15T07:45:51.781Z,-7.61
2022-12-15T07:46:51.507Z,-7.61
2022-12-15T07:47:51.493Z,-7.61
2022-12-15T07:48:51.479Z,-7.61
2022-12-15T07:49:51.482Z,-7.61
2022-12-15T07:50:51.460Z,-7.61
2022-12-15T07:51:51.445Z,-7.62
2022-12-15T07:52:51.431Z,-7.61
2022-12-15T07:53:51.451Z,-7.60
2022-12-15T07:54:51.429Z,-7.59
2022-12-15T07:56:06.693Z,-7.57
2022-12-15T07:56:52.401Z,-7.55
2022-12-15T07:57:51.384Z,-7.53
2022-12-15T07:58:51.381Z,-7.53
2022-12-15T07:59:51.378Z,-7.54
2022-12-15T08:00:51.417Z,-7.54
2022-12-15T08:01:51.535Z,-7.55
2022-12-15T08:02:51.454Z,-7.55
2022-12-15T08:03:51.421Z,-7.54
2022-12-15T08:04:52.278Z,-7.54
2022-12-15T08:05:51.301Z,-7.55
2022-12-15T08:06:51.287Z,-7.55
2022-12-15T08:07:51.301Z,-7.56
2022-12-15T08:08:51.513Z,-7.57
2022-12-15T08:09:51.281Z,-7.58
2022-12-15T08:10:51.246Z,-7.60
2022-12-15T08:11:51.242Z,-7.62
2022-12-15T08:12:51.252Z,-7.64
2022-12-15T08:14:52.240Z,-7.69
2022-12-15T08:15:51.194Z,-7.72
2022-12-15T08:16:51.254Z,-7.74
2022-12-15T08:17:51.178Z,-7.76
2022-12-15T08:18:51.184Z,-7.77
2022-12-15T08:19:53.463Z,-7.78
2022-12-15T08:20:52.836Z,-7.77
2022-12-15T08:21:51.137Z,-7.77
2022-12-15T08:22:51.126Z,-7.77
2022-12-15T08:23:51.155Z,-7.77
2022-12-15T08:24:51.137Z,-7.76
2022-12-15T08:25:51.102Z,-7.76
2022-12-15T08:26:51.090Z,-7.75
2022-12-15T08:27:51.074Z,-7.75
2022-12-15T08:28:51.081Z,-7.74
2022-12-15T08:29:52.372Z,-7.72
2022-12-15T08:30:51.068Z,-7.71
2022-12-15T08:31:51.046Z,-7.70
2022-12-15T08:32:52.138Z,-7.69
2022-12-15T08:33:51.027Z,-7.69
2022-12-15T08:34:51.023Z,-7.69
2022-12-15T08:35:57.580Z,-7.69
2022-12-15T08:36:51.985Z,-7.70
2022-12-15T08:37:50.970Z,-7.71
2022-12-15T08:38:50.980Z,-7.71
2022-12-15T08:39:50.949Z,-7.71
2022-12-15T08:40:50.959Z,-7.70
2022-12-15T08:41:50.937Z,-7.70
2022-12-15T08:42:50.919Z,-7.70
2022-12-15T08:43:50.911Z,-7.69
2022-12-15T08:44:50.929Z,-7.68
2022-12-15T08:45:50.989Z,-7.67
2022-12-15T08:46:50.878Z,-7.64
2022-12-15T08:47:50.914Z,-7.58
2022-12-15T08:48:50.864Z,-7.51
2022-12-15T08:49:50.889Z,-7.44
2022-12-15T08:50:50.837Z,-7.38
2022-12-15T08:51:50.891Z,-7.32
2022-12-15T08:53:21.339Z,-7.27
2022-12-15T08:53:51.847Z,-7.22
2022-12-15T08:54:50.798Z,-7.18
2022-12-15T08:55:50.826Z,-7.15
2022-12-15T08:56:50.799Z,-7.11
2022-12-15T08:57:50.770Z,-7.08
2022-12-15T08:58:50.761Z,-7.05
2022-12-15T08:59:50.875Z,-7.02
2022-12-15T09:00:50.818Z,-7.00
2022-12-15T09:01:50.893Z,-6.97
2022-12-15T09:02:50.781Z,-6.93
2022-12-15T09:03:50.747Z,-6.89
2022-12-15T09:04:50.789Z,-6.86
2022-12-15T09:05:50.695Z,-6.82
2022-12-15T09:06:51.180Z,-6.76
2022-12-15T09:07:50.668Z,-6.68
2022-12-15T09:08:50.812Z,-6.58
2022-12-15T09:09:50.649Z,-6.50
2022-12-15T09:10:52.811Z,-6.41
2022-12-15T09:11:50.632Z,-6.34
2022-12-15T09:12:50.617Z,-6.28
2022-12-15T09:13:50.601Z,-6.24
2022-12-15T09:14:50.602Z,-6.20
2022-12-15T09:16:51.615Z,-6.12
2022-12-15T09:17:50.559Z,-6.08
2022-12-15T09:18:50.550Z,-6.04
2022-12-15T09:19:50.556Z,-5.99
2022-12-15T09:20:50.533Z,-5.94
2022-12-15T09:21:50.535Z,-5.89
2022-12-15T09:22:50.578Z,-5.86
2022-12-15T09:23:50.500Z,-5.83
2022-12-15T09:24:50.491Z,-5.80
2022-12-15T09:25:50.480Z,-5.79
2022-12-15T09:26:50.489Z,-5.77
2022-12-15T09:27:50.465Z,-5.75
2022-12-15T09:28:50.897Z,-5.73
2022-12-15T09:29:50.449Z,-5.71
2022-12-15T09:30:50.512Z,-5.68
2022-12-15T09:31:50.439Z,-5.66
2022-12-15T09:32:50.409Z,-5.63
2022-12-15T09:33:50.419Z,-5.60
2022-12-15T09:34:50.409Z,-5.57
2022-12-15T09:35:50.385Z,-5.54
2022-12-15T09:36:50.369Z,-5.51
2022-12-15T09:37:52.032Z,-5.47
2022-12-15T09:38:50.355Z,-5.44
2022-12-15T09:39:50.356Z,-5.41
2022-12-15T09:40:50.331Z,-5.40
2022-12-15T09:41:50.325Z,-5.39
2022-12-15T09:42:59.776Z,-5.39
2022-12-15T09:43:52.046Z,-5.38
2022-12-15T09:44:50.322Z,-5.38
2022-12-15T09:45:50.291Z,-5.37
2022-12-15T09:46:50.682Z,-5.37
2022-12-15T09:47:50.259Z,-5.36
2022-12-15T09:48:50.283Z,-5.36
2022-12-15T09:49:50.247Z,-5.35
2022-12-15T09:50:50.234Z,-5.35
2022-12-15T09:51:50.207Z,-5.36
2022-12-15T09:52:50.222Z,-5.36
2022-12-15T09:53:55.149Z,-5.37
2022-12-15T09:54:51.367Z,-5.38
2022-12-15T09:55:50.186Z,-5.38
2022-12-15T09:56:50.315Z,-5.39
2022-12-15T09:57:50.152Z,-5.39
2022-12-15T09:58:50.734Z,-5.39
2022-12-15T09:59:50.174Z,-5.39
2022-12-15T10:00:52.425Z,-5.38
2022-12-15T10:01:50.147Z,-5.37
2022-12-15T10:02:50.271Z,-5.36
2022-12-15T10:03:50.236Z,-5.34
2022-12-15T10:04:50.822Z,-5.32
2022-12-15T10:06:14.530Z,-5.29
2022-12-15T10:06:51.070Z,-5.25
2022-12-15T10:07:50.481Z,-5.22
2022-12-15T10:08:50.691Z,-5.19
2022-12-15T10:09:50.041Z,-5.15
2022-12-15T10:10:50.025Z,-5.11
2022-12-15T10:11:50.584Z,-5.08
2022-12-15T10:13:04.865Z,-5.05
2022-12-15T10:13:50.988Z,-5.02
2022-12-15T10:14:50.116Z,-4.99
2022-12-15T10:15:50.209Z,-4.97
2022-12-15T10:16:50.140Z,-4.94
2022-12-15T10:17:50.365Z,-4.91
2022-12-15T10:18:50.485Z,-4.89
2022-12-15T10:19:50.333Z,-4.86
2022-12-15T10:20:49.934Z,-4.84
2022-12-15T10:21:50.422Z,-4.81
2022-12-15T10:22:50.431Z,-4.79
2022-12-15T10:23:50.436Z,-4.77
2022-12-15T10:25:51.358Z,-4.73
2022-12-15T10:26:49.888Z,-4.71
2022-12-15T10:27:49.887Z,-4.69
2022-12-15T10:28:51.083Z,-4.67
2022-12-15T10:30:50.909Z,-4.61
2022-12-15T10:31:49.799Z,-4.58
2022-12-15T10:32:51.296Z,-4.56
2022-12-15T10:33:50.168Z,-4.54
2022-12-15T10:34:49.852Z,-4.52
2022-12-15T10:35:49.817Z,-4.50
2022-12-15T10:36:49.747Z,-4.48
2022-12-15T10:37:50.194Z,-4.46
2022-12-15T10:38:50.452Z,-4.44
2022-12-15T10:39:50.074Z,-4.41
2022-12-15T10:40:50.620Z,-4.40
2022-12-15T10:41:49.712Z,-4.38
2022-12-15T10:42:49.692Z,-4.37
2022-12-15T10:43:50.223Z,-4.37
2022-12-15T10:44:50.527Z,-4.35
2022-12-15T10:45:49.733Z,-4.34
2022-12-15T10:46:49.720Z,-4.32
2022-12-15T10:47:49.655Z,-4.31
2022-12-15T10:48:49.628Z,-4.29
2022-12-15T10:49:49.637Z,-4.27
2022-12-15T10:50:50.217Z,-4.25
2022-12-15T10:51:49.594Z,-4.24
2022-12-15T10:52:50.240Z,-4.22
2022-12-15T10:53:50.693Z,-4.20
2022-12-15T10:54:49.580Z,-4.19
2022-12-15T10:55:49.830Z,-4.18
2022-12-15T10:57:50.538Z,-4.15
2022-12-15T10:58:50.228Z,-4.13
2022-12-15T10:59:50.407Z,-4.12
2022-12-15T11:00:50.911Z,-4.10
2022-12-15T11:02:50.723Z,-4.08
2022-12-15T11:03:49.601Z,-4.06
2022-12-15T11:04:49.490Z,-4.04
2022-12-15T11:05:49.460Z,-4.01
2022-12-15T11:06:49.442Z,-3.97
2022-12-15T11:07:49.450Z,-3.94
2022-12-15T11:08:49.409Z,-3.91
2022-12-15T11:09:49.420Z,-3.89
2022-12-15T11:10:50.053Z,-3.87
2022-12-15T11:11:50.391Z,-3.85
2022-12-15T11:12:50.628Z,-3.83
2022-12-15T11:13:49.388Z,-3.82
2022-12-15T11:14:49.377Z,-3.80
2022-12-15T11:15:50.705Z,-3.79
2022-12-15T11:16:49.339Z,-3.77
2022-12-15T11:17:49.320Z,-3.75
2022-12-15T11:18:49.325Z,-3.73
2022-12-15T11:19:49.303Z,-3.70
2022-12-15T11:20:49.353Z,-3.66
2022-12-15T11:21:49.312Z,-3.63
2022-12-15T11:22:49.277Z,-3.61
2022-12-15T11:23:50.323Z,-3.59
2022-12-15T11:24:49.260Z,-3.58
2022-12-15T11:25:49.252Z,-3.57
2022-12-15T11:26:49.321Z,-3.56
2022-12-15T11:27:49.231Z,-3.55
2022-12-15T11:28:49.230Z,-3.54
2022-12-15T11:29:50.198Z,-3.54
2022-12-15T11:30:49.200Z,-3.53
2022-12-15T11:31:49.189Z,-3.52
2022-12-15T11:32:49.184Z,-3.51
2022-12-15T11:33:49.277Z,-3.50
2022-12-15T11:34:49.155Z,-3.48
2022-12-15T11:35:49.143Z,-3.45
2022-12-15T11:36:49.130Z,-3.42
2022-12-15T11:37:49.137Z,-3.40
2022-12-15T11:38:49.163Z,-3.39
2022-12-15T11:39:49.098Z,-3.38
2022-12-15T11:40:50.539Z,-3.37
2022-12-15T11:41:49.085Z,-3.37
2022-12-15T11:42:49.057Z,-3.36
2022-12-15T11:43:50.441Z,-3.35
2022-12-15T11:44:49.104Z,-3.34
2022-12-15T11:45:49.032Z,-3.33
2022-12-15T11:46:49.034Z,-3.32
2022-12-15T11:47:49.016Z,-3.31
2022-12-15T11:48:49.046Z,-3.31
2022-12-15T11:49:49.102Z,-3.30
2022-12-15T11:50:50.988Z,-3.29
2022-12-15T11:51:49.087Z,-3.27
2022-12-15T11:52:49.042Z,-3.26
2022-12-15T11:53:49.442Z,-3.25
2022-12-15T11:54:49.094Z,-3.24
2022-12-15T11:55:48.927Z,-3.22
2022-12-15T11:56:49.160Z,-3.21
2022-12-15T11:57:48.910Z,-3.20
2022-12-15T11:58:48.923Z,-3.19
2022-12-15T11:59:48.920Z,-3.18
2022-12-15T12:00:48.888Z,-3.18
2022-12-15T12:01:55.262Z,-3.17
2022-12-15T12:02:49.946Z,-3.16
2022-12-15T12:03:48.837Z,-3.15
2022-12-15T12:04:48.849Z,-3.14
2022-12-15T12:05:48.857Z,-3.13
2022-12-15T12:06:48.811Z,-3.13
2022-12-15T12:07:49.065Z,-3.13
2022-12-15T12:08:51.159Z,-3.12
2022-12-15T12:09:48.781Z,-3.12
2022-12-15T12:10:48.847Z,-3.12
2022-12-15T12:11:50.480Z,-3.12
2022-12-15T12:12:50.599Z,-3.11
2022-12-15T12:13:50.422Z,-3.10
2022-12-15T12:14:50.487Z,-3.09
2022-12-15T12:15:48.733Z,-3.09
2022-12-15T12:16:48.755Z,-3.09
2022-12-15T12:17:48.724Z,-3.08
2022-12-15T12:18:50.456Z,-3.08
2022-12-15T12:19:51.000Z,-3.07
2022-12-15T12:20:48.698Z,-3.06
2022-12-15T12:21:51.057Z,-3.05
2022-12-15T12:22:48.651Z,-3.03
2022-12-15T12:23:48.673Z,-3.02
2022-12-15T12:24:48.920Z,-3.01
2022-12-15T12:25:48.600Z,-3.00
2022-12-15T12:26:50.071Z,-2.99
2022-12-15T12:27:50.206Z,-2.99
2022-12-15T12:28:50.198Z,-2.98
2022-12-15T12:29:48.784Z,-2.98
2022-12-15T12:30:50.281Z,-2.97
2022-12-15T12:31:50.769Z,-2.97
2022-12-15T12:32:50.663Z,-2.97
2022-12-15T12:33:49.549Z,-2.96
2022-12-15T12:34:48.521Z,-2.96
2022-12-15T12:36:49.518Z,-2.97
2022-12-15T12:37:48.488Z,-2.97
2022-12-15T12:38:48.804Z,-2.98
2022-12-15T12:39:49.469Z,-2.98
2022-12-15T12:40:48.449Z,-2.98
2022-12-15T12:41:48.546Z,-2.97
2022-12-15T12:42:48.508Z,-2.97
2022-12-15T12:43:50.153Z,-2.96
2022-12-15T12:44:48.659Z,-2.94
2022-12-15T12:45:50.235Z,-2.93
2022-12-15T12:46:48.935Z,-2.92
2022-12-15T12:47:48.397Z,-2.91
2022-12-15T12:48:48.407Z,-2.90
2022-12-15T12:49:50.211Z,-2.89
2022-12-15T12:50:48.383Z,-2.88
2022-12-15T12:51:48.357Z,-2.87
2022-12-15T12:52:48.356Z,-2.86
2022-12-15T12:54:50.314Z,-2.85
2022-12-15T12:55:48.304Z,-2.84
2022-12-15T12:56:48.868Z,-2.83
2022-12-15T12:57:50.141Z,-2.82
2022-12-15T12:58:48.560Z,-2.81
2022-12-15T12:59:49.001Z,-2.81
2022-12-15T13:00:51.208Z,-2.80